sensor_id;sensor_type;location;lat;lon;timestamp;pressure;altitude;pressure_sealevel;temperature;humidity
596;BME280;19946;49.306;11.350;2023-04-08T00:02:57;96514.81;;;2.03;100.00
596;BME280;19946;49.306;11.350;2023-04-08T00:05:59;96377.22;;;1.12;100.00
596;BME280;19946;49.306;11.350;2023-04-08T00:09:02;96399.50;;;1.26;100.00
596;BME280;19946;49.306;11.350;2023-04-08T00:12:03;96333.81;;;0.96;100.00
596;BME280;19946;49.306;11.350;2023-04-08T00:15:04;96478.00;;;1.90;100.00
596;BME280;19946;49.306;11.350;2023-04-08T00:18:06;96400.41;;;1.42;100.00
596;BME280;19946;49.306;11.350;2023-04-08T00:21:08;96322.16;;;0.73;100.00
596;BME280;19946;49.306;11.350;2023-04-08T00:24:08;96529.78;;;1.93;100.00
596;BME280;19946;49.306;11.350;2023-04-08T00:27:10;96327.81;;;0.97;100.00
596;BME280;19946;49.306;11.350;2023-04-08T00:30:11;96421.66;;;1.60;100.00
596;BME280;19946;49.306;11.350;2023-04-08T00:33:11;96405.28;;;1.46;100.00
596;BME280;19946;49.306;11.350;2023-04-08T00:36:14;96313.75;;;0.71;100.00
596;BME280;19946;49.306;11.350;2023-04-08T00:39:16;96399.88;;;1.35;100.00
596;BME280;19946;49.306;11.350;2023-04-08T00:42:17;96380.47;;;1.16;100.00
596;BME280;19946;49.306;11.350;2023-04-08T00:45:18;96529.22;;;2.21;100.00
596;BME280;19946;49.306;11.350;2023-04-08T00:48:18;96537.91;;;2.17;100.00
596;BME280;19946;49.306;11.350;2023-04-08T00:51:19;96336.34;;;0.96;100.00
596;BME280;19946;49.306;11.350;2023-04-08T00:54:20;96418.19;;;1.26;100.00
596;BME280;19946;49.306;11.350;2023-04-08T00:57:24;96410.22;;;1.15;100.00
596;BME280;19946;49.306;11.350;2023-04-08T01:00:25;96358.63;;;0.93;100.00
596;BME280;19946;49.306;11.350;2023-04-08T01:03:51;96526.16;;;1.80;100.00
596;BME280;19946;49.306;11.350;2023-04-08T01:07:00;96412.72;;;0.81;100.00
596;BME280;19946;49.306;11.350;2023-04-08T01:10:30;96528.81;;;1.42;100.00
596;BME280;19946;49.306;11.350;2023-04-08T01:13:38;96441.22;;;1.07;100.00
596;BME280;19946;49.306;11.350;2023-04-08T01:16:48;96410.63;;;0.89;100.00
596;BME280;19946;49.306;11.350;2023-04-08T01:19:51;96490.44;;;1.27;100.00
596;BME280;19946;49.306;11.350;2023-04-08T01:26:03;96532.81;;;1.48;100.00
596;BME280;19946;49.306;11.350;2023-04-08T01:29:05;96547.44;;;1.44;100.00
596;BME280;19946;49.306;11.350;2023-04-08T01:32:08;96392.63;;;0.56;100.00
596;BME280;19946;49.306;11.350;2023-04-08T01:35:14;96440.31;;;0.90;100.00
596;BME280;19946;49.306;11.350;2023-04-08T01:38:19;96535.56;;;1.43;100.00
596;BME280;19946;49.306;11.350;2023-04-08T01:41:25;96399.91;;;0.82;100.00
596;BME280;19946;49.306;11.350;2023-04-08T01:44:30;96373.56;;;0.64;100.00
596;BME280;19946;49.306;11.350;2023-04-08T01:47:33;96462.97;;;1.32;100.00
596;BME280;19946;49.306;11.350;2023-04-08T01:50:40;96396.84;;;0.76;100.00
596;BME280;19946;49.306;11.350;2023-04-08T01:53:41;96478.78;;;1.40;100.00
596;BME280;19946;49.306;11.350;2023-04-08T01:56:44;96475.81;;;1.30;100.00
596;BME280;19946;49.306;11.350;2023-04-08T01:59:47;96404.50;;;1.10;100.00
596;BME280;19946;49.306;11.350;2023-04-08T02:02:52;96462.69;;;1.38;100.00
596;BME280;19946;49.306;11.350;2023-04-08T02:05:56;96405.41;;;0.92;100.00
596;BME280;19946;49.306;11.350;2023-04-08T02:09:15;96396.09;;;0.91;100.00
596;BME280;19946;49.306;11.350;2023-04-08T02:15:37;96338.31;;;0.19;100.00
596;BME280;19946;49.306;11.350;2023-04-08T02:19:10;96458.25;;;0.88;100.00
596;BME280;19946;49.306;11.350;2023-04-08T02:22:22;96498.28;;;1.05;100.00
596;BME280;19946;49.306;11.350;2023-04-08T02:25:28;96401.59;;;0.46;100.00
596;BME280;19946;49.306;11.350;2023-04-08T02:28:30;96415.16;;;0.65;100.00
596;BME280;19946;49.306;11.350;2023-04-08T02:31:33;96421.66;;;0.53;100.00
596;BME280;19946;49.306;11.350;2023-04-08T02:34:35;96343.81;;;0.10;100.00
596;BME280;19946;49.306;11.350;2023-04-08T02:37:37;96409.03;;;0.50;100.00
596;BME280;19946;49.306;11.350;2023-04-08T02:40:37;96401.72;;;0.61;100.00
596;BME280;19946;49.306;11.350;2023-04-08T02:43:45;96352.94;;;0.33;100.00
596;BME280;19946;49.306;11.350;2023-04-08T02:46:47;96334.22;;;0.15;100.00
596;BME280;19946;49.306;11.350;2023-04-08T02:49:52;96536.56;;;1.58;100.00
596;BME280;19946;49.306;11.350;2023-04-08T02:52:55;96538.75;;;1.49;100.00
596;BME280;19946;49.306;11.350;2023-04-08T02:55:58;96365.16;;;0.44;100.00
596;BME280;19946;49.306;11.350;2023-04-08T02:58:59;96521.44;;;1.36;100.00
596;BME280;19946;49.306;11.350;2023-04-08T03:02:00;96473.75;;;1.20;100.00
596;BME280;19946;49.306;11.350;2023-04-08T03:08:27;96484.53;;;1.43;100.00
596;BME280;19946;49.306;11.350;2023-04-08T03:11:30;96343.06;;;0.44;100.00
596;BME280;19946;49.306;11.350;2023-04-08T03:14:31;96403.47;;;0.97;100.00
596;BME280;19946;49.306;11.350;2023-04-08T03:17:33;96488.66;;;1.46;100.00
596;BME280;19946;49.306;11.350;2023-04-08T03:20:34;96470.34;;;1.38;100.00
596;BME280;19946;49.306;11.350;2023-04-08T03:23:34;96547.16;;;1.85;100.00
596;BME280;19946;49.306;11.350;2023-04-08T03:26:35;96410.28;;;0.96;100.00
596;BME280;19946;49.306;11.350;2023-04-08T03:29:37;96555.72;;;1.84;100.00
596;BME280;19946;49.306;11.350;2023-04-08T03:32:38;96475.72;;;1.32;100.00
596;BME280;19946;49.306;11.350;2023-04-08T03:35:39;96429.56;;;1.19;100.00
596;BME280;19946;49.306;11.350;2023-04-08T03:38:43;96426.13;;;1.20;100.00
596;BME280;19946;49.306;11.350;2023-04-08T03:41:44;96423.50;;;1.22;100.00
596;BME280;19946;49.306;11.350;2023-04-08T03:44:45;96422.75;;;1.20;100.00
596;BME280;19946;49.306;11.350;2023-04-08T03:47:46;96516.22;;;1.74;100.00
596;BME280;19946;49.306;11.350;2023-04-08T03:50:47;96550.31;;;2.07;100.00
596;BME280;19946;49.306;11.350;2023-04-08T03:53:47;96549.72;;;2.19;100.00
596;BME280;19946;49.306;11.350;2023-04-08T03:56:49;96490.69;;;1.74;100.00
596;BME280;19946;49.306;11.350;2023-04-08T03:59:50;96551.06;;;2.09;100.00
596;BME280;19946;49.306;11.350;2023-04-08T04:02:52;96378.13;;;0.94;100.00
596;BME280;19946;49.306;11.350;2023-04-08T04:05:52;96460.22;;;1.36;100.00
596;BME280;19946;49.306;11.350;2023-04-08T04:08:56;96381.84;;;0.87;100.00
596;BME280;19946;49.306;11.350;2023-04-08T04:11:57;96433.94;;;1.17;100.00
596;BME280;19946;49.306;11.350;2023-04-08T04:14:58;96511.44;;;1.68;100.00
596;BME280;19946;49.306;11.350;2023-04-08T04:17:59;96560.72;;;2.04;100.00
596;BME280;19946;49.306;11.350;2023-04-08T04:21:04;96578.59;;;2.04;100.00
596;BME280;19946;49.306;11.350;2023-04-08T04:24:05;96487.13;;;1.61;100.00
596;BME280;19946;49.306;11.350;2023-04-08T04:27:06;96433.94;;;1.34;100.00
596;BME280;19946;49.306;11.350;2023-04-08T04:30:07;96368.94;;;0.72;100.00
596;BME280;19946;49.306;11.350;2023-04-08T04:33:09;96574.22;;;2.06;100.00
596;BME280;19946;49.306;11.350;2023-04-08T04:36:10;96481.53;;;1.53;100.00
596;BME280;19946;49.306;11.350;2023-04-08T04:39:11;96574.38;;;2.03;100.00
596;BME280;19946;49.306;11.350;2023-04-08T04:42:11;96528.16;;;1.73;100.00
596;BME280;19946;49.306;11.350;2023-04-08T04:45:12;96455.78;;;1.23;100.00
596;BME280;19946;49.306;11.350;2023-04-08T04:48:13;96475.78;;;1.49;100.00
596;BME280;19946;49.306;11.350;2023-04-08T04:51:14;96573.31;;;2.25;100.00
596;BME280;19946;49.306;11.350;2023-04-08T04:54:15;96478.47;;;1.63;100.00
596;BME280;19946;49.306;11.350;2023-04-08T04:57:16;96465.88;;;1.60;100.00
596;BME280;19946;49.306;11.350;2023-04-08T05:00:17;96492.81;;;1.83;100.00
596;BME280;19946;49.306;11.350;2023-04-08T05:03:18;96480.78;;;1.68;100.00
596;BME280;19946;49.306;11.350;2023-04-08T05:06:22;96468.88;;;1.68;100.00
596;BME280;19946;49.306;11.350;2023-04-08T05:09:23;96587.41;;;2.49;100.00
596;BME280;19946;49.306;11.350;2023-04-08T05:12:24;96587.94;;;2.55;100.00
596;BME280;19946;49.306;11.350;2023-04-08T05:15:29;96460.75;;;1.77;100.00
596;BME280;19946;49.306;11.350;2023-04-08T05:18:32;96609.66;;;2.64;100.00
596;BME280;19946;49.306;11.350;2023-04-08T05:21:33;96498.88;;;1.98;100.00
596;BME280;19946;49.306;11.350;2023-04-08T05:24:39;96605.88;;;2.71;100.00
596;BME280;19946;49.306;11.350;2023-04-08T05:27:40;96606.63;;;2.73;100.00
596;BME280;19946;49.306;11.350;2023-04-08T05:30:41;96488.91;;;1.93;100.00
596;BME280;19946;49.306;11.350;2023-04-08T05:33:41;96513.00;;;2.05;100.00
596;BME280;19946;49.306;11.350;2023-04-08T05:36:43;96620.56;;;2.68;100.00
596;BME280;19946;49.306;11.350;2023-04-08T05:39:46;96481.56;;;1.70;100.00
596;BME280;19946;49.306;11.350;2023-04-08T05:42:47;96617.81;;;2.38;100.00
596;BME280;19946;49.306;11.350;2023-04-08T05:45:48;96618.63;;;2.21;100.00
596;BME280;19946;49.306;11.350;2023-04-08T05:48:49;96527.25;;;1.57;100.00
596;BME280;19946;49.306;11.350;2023-04-08T05:51:50;96630.88;;;2.14;100.00
596;BME280;19946;49.306;11.350;2023-04-08T05:54:51;96627.72;;;2.09;100.00
596;BME280;19946;49.306;11.350;2023-04-08T05:57:52;96532.13;;;1.44;100.00
596;BME280;19946;49.306;11.350;2023-04-08T06:00:53;96553.50;;;1.42;100.00
596;BME280;19946;49.306;11.350;2023-04-08T06:03:55;96586.16;;;1.71;100.00
596;BME280;19946;49.306;11.350;2023-04-08T06:06:59;96594.78;;;1.86;100.00
596;BME280;19946;49.306;11.350;2023-04-08T06:10:02;96540.06;;;1.38;100.00
596;BME280;19946;49.306;11.350;2023-04-08T06:13:04;96532.84;;;1.10;100.00
596;BME280;19946;49.306;11.350;2023-04-08T06:16:15;96474.44;;;0.68;100.00
596;BME280;19946;49.306;11.350;2023-04-08T06:19:16;96475.16;;;0.72;100.00
596;BME280;19946;49.306;11.350;2023-04-08T06:22:17;96545.13;;;1.02;100.00
596;BME280;19946;49.306;11.350;2023-04-08T06:25:18;96513.72;;;0.83;100.00
596;BME280;19946;49.306;11.350;2023-04-08T06:28:19;96664.59;;;1.68;100.00
596;BME280;19946;49.306;11.350;2023-04-08T06:31:20;96511.59;;;0.74;100.00
596;BME280;19946;49.306;11.350;2023-04-08T06:34:24;96536.94;;;0.96;100.00
596;BME280;19946;49.306;11.350;2023-04-08T06:37:26;96576.50;;;1.04;100.00
596;BME280;19946;49.306;11.350;2023-04-08T06:40:30;96631.38;;;1.51;100.00
596;BME280;19946;49.306;11.350;2023-04-08T06:43:32;96547.34;;;0.91;100.00
596;BME280;19946;49.306;11.350;2023-04-08T06:46:36;96660.25;;;1.70;100.00
596;BME280;19946;49.306;11.350;2023-04-08T06:49:37;96612.66;;;1.31;100.00
596;BME280;19946;49.306;11.350;2023-04-08T06:52:38;96607.72;;;1.28;100.00
596;BME280;19946;49.306;11.350;2023-04-08T06:55:39;96555.47;;;0.99;100.00
596;BME280;19946;49.306;11.350;2023-04-08T07:05:16;96617.94;;;1.28;100.00
596;BME280;19946;49.306;11.350;2023-04-08T07:08:23;96579.81;;;1.06;100.00
596;BME280;19946;49.306;11.350;2023-04-08T07:18:15;96564.59;;;0.86;100.00
596;BME280;19946;49.306;11.350;2023-04-08T07:28:09;96597.56;;;0.89;100.00
596;BME280;19946;49.306;11.350;2023-04-08T07:37:48;96676.38;;;1.52;100.00
596;BME280;19946;49.306;11.350;2023-04-08T07:40:56;96716.81;;;1.79;100.00
596;BME280;19946;49.306;11.350;2023-04-08T07:43:58;96677.78;;;1.59;100.00
596;BME280;19946;49.306;11.350;2023-04-08T07:46:59;96669.84;;;1.46;100.00
596;BME280;19946;49.306;11.350;2023-04-08T07:50:00;96559.25;;;0.91;100.00
596;BME280;19946;49.306;11.350;2023-04-08T08:03:34;96722.03;;;1.95;100.00
596;BME280;19946;49.306;11.350;2023-04-08T08:06:39;96607.44;;;1.16;100.00
596;BME280;19946;49.306;11.350;2023-04-08T08:09:41;96725.56;;;1.93;100.00
596;BME280;19946;49.306;11.350;2023-04-08T08:12:52;96589.84;;;1.09;100.00
596;BME280;19946;49.306;11.350;2023-04-08T08:15:53;96738.63;;;2.05;100.00
596;BME280;19946;49.306;11.350;2023-04-08T08:22:13;96615.97;;;1.33;100.00
596;BME280;19946;49.306;11.350;2023-04-08T08:41:42;96750.34;;;2.45;100.00
596;BME280;19946;49.306;11.350;2023-04-08T08:44:44;96660.97;;;1.91;100.00
596;BME280;19946;49.306;11.350;2023-04-08T08:47:45;96648.41;;;1.86;100.00
596;BME280;19946;49.306;11.350;2023-04-08T08:50:47;96657.09;;;2.01;100.00
596;BME280;19946;49.306;11.350;2023-04-08T08:53:48;96720.63;;;2.43;100.00
596;BME280;19946;49.306;11.350;2023-04-08T09:00:06;96637.88;;;1.75;100.00
596;BME280;19946;49.306;11.350;2023-04-08T09:03:18;96770.72;;;2.64;100.00
596;BME280;19946;49.306;11.350;2023-04-08T09:06:21;96614.16;;;1.73;100.00
596;BME280;19946;49.306;11.350;2023-04-08T09:09:22;96666.94;;;2.08;100.00
596;BME280;19946;49.306;11.350;2023-04-08T09:12:28;96777.66;;;2.79;100.00
596;BME280;19946;49.306;11.350;2023-04-08T09:15:32;96712.91;;;2.62;100.00
596;BME280;19946;49.306;11.350;2023-04-08T09:18:32;96784.88;;;3.06;100.00
596;BME280;19946;49.306;11.350;2023-04-08T09:21:37;96588.34;;;1.96;100.00
596;BME280;19946;49.306;11.350;2023-04-08T09:24:38;96632.22;;;2.22;100.00
596;BME280;19946;49.306;11.350;2023-04-08T09:27:44;96650.88;;;2.41;100.00
596;BME280;19946;49.306;11.350;2023-04-08T09:30:50;96731.78;;;2.76;100.00
596;BME280;19946;49.306;11.350;2023-04-08T09:33:56;96781.78;;;3.16;100.00
596;BME280;19946;49.306;11.350;2023-04-08T09:37:04;96777.97;;;2.90;100.00
596;BME280;19946;49.306;11.350;2023-04-08T09:40:10;96782.25;;;2.90;100.00
596;BME280;19946;49.306;11.350;2023-04-08T09:43:15;96667.25;;;2.19;100.00
596;BME280;19946;49.306;11.350;2023-04-08T09:46:31;96705.59;;;2.37;100.00
596;BME280;19946;49.306;11.350;2023-04-08T09:52:56;96806.63;;;2.97;100.00
596;BME280;19946;49.306;11.350;2023-04-08T09:56:06;96678.28;;;2.20;100.00
596;BME280;19946;49.306;11.350;2023-04-08T09:59:13;96701.75;;;2.28;100.00
596;BME280;19946;49.306;11.350;2023-04-08T10:02:26;96741.31;;;2.55;100.00
596;BME280;19946;49.306;11.350;2023-04-08T10:09:02;96627.19;;;2.03;100.00
596;BME280;19946;49.306;11.350;2023-04-08T10:12:06;96809.66;;;3.22;100.00
596;BME280;19946;49.306;11.350;2023-04-08T10:18:30;96674.09;;;2.53;100.00
596;BME280;19946;49.306;11.350;2023-04-08T10:21:34;96711.47;;;2.73;100.00
596;BME280;19946;49.306;11.350;2023-04-08T10:25:16;96797.72;;;3.39;100.00
596;BME280;19946;49.306;11.350;2023-04-08T10:31:20;96803.75;;;3.71;100.00
596;BME280;19946;49.306;11.350;2023-04-08T10:34:24;96718.84;;;3.29;100.00
596;BME280;19946;49.306;11.350;2023-04-08T10:40:46;96711.72;;;3.52;100.00
596;BME280;19946;49.306;11.350;2023-04-08T11:13:41;96767.59;;;3.77;100.00
596;BME280;19946;49.306;11.350;2023-04-08T11:16:43;96647.34;;;3.26;100.00
596;BME280;19946;49.306;11.350;2023-04-08T11:19:45;96650.78;;;3.10;100.00
596;BME280;19946;49.306;11.350;2023-04-08T11:22:46;96691.06;;;3.55;100.00
596;BME280;19946;49.306;11.350;2023-04-08T11:25:56;96701.16;;;3.74;100.00
596;BME280;19946;49.306;11.350;2023-04-08T11:29:13;96638.19;;;3.38;100.00
596;BME280;19946;49.306;11.350;2023-04-08T11:42:31;96790.19;;;4.78;100.00
596;BME280;19946;49.306;11.350;2023-04-08T11:45:37;96692.78;;;4.01;100.00
596;BME280;19946;49.306;11.350;2023-04-08T11:48:58;96796.59;;;4.71;100.00
596;BME280;19946;49.306;11.350;2023-04-08T11:52:02;96635.63;;;3.85;100.00
596;BME280;19946;49.306;11.350;2023-04-08T11:55:03;96796.97;;;5.09;100.00
596;BME280;19946;49.306;11.350;2023-04-08T11:58:04;96682.97;;;4.69;100.00
596;BME280;19946;49.306;11.350;2023-04-08T12:01:06;96653.72;;;4.58;100.00
596;BME280;19946;49.306;11.350;2023-04-08T12:04:09;96808.16;;;5.38;100.00
596;BME280;19946;49.306;11.350;2023-04-08T12:07:10;96716.94;;;5.03;100.00
596;BME280;19946;49.306;11.350;2023-04-08T12:10:12;96642.25;;;4.49;100.00
596;BME280;19946;49.306;11.350;2023-04-08T12:13:13;96791.53;;;5.44;100.00
596;BME280;19946;49.306;11.350;2023-04-08T12:16:15;96792.16;;;5.33;100.00
596;BME280;19946;49.306;11.350;2023-04-08T12:19:16;96646.81;;;4.14;100.00
596;BME280;19946;49.306;11.350;2023-04-08T12:22:18;96683.03;;;4.54;100.00
596;BME280;19946;49.306;11.350;2023-04-08T12:25:18;96636.56;;;4.14;100.00
596;BME280;19946;49.306;11.350;2023-04-08T12:28:27;96707.03;;;4.53;100.00
596;BME280;19946;49.306;11.350;2023-04-08T12:31:28;96797.84;;;5.24;100.00
596;BME280;19946;49.306;11.350;2023-04-08T12:34:30;96800.00;;;5.46;100.00
596;BME280;19946;49.306;11.350;2023-04-08T12:37:31;96706.72;;;4.73;100.00
596;BME280;19946;49.306;11.350;2023-04-08T12:40:32;96753.72;;;5.03;100.00
596;BME280;19946;49.306;11.350;2023-04-08T12:43:34;96814.44;;;5.33;100.00
596;BME280;19946;49.306;11.350;2023-04-08T12:46:35;96714.13;;;4.77;100.00
596;BME280;19946;49.306;11.350;2023-04-08T12:49:36;96680.41;;;4.39;100.00
596;BME280;19946;49.306;11.350;2023-04-08T12:52:37;96737.59;;;4.71;100.00
596;BME280;19946;49.306;11.350;2023-04-08T12:55:38;96727.66;;;4.65;100.00
596;BME280;19946;49.306;11.350;2023-04-08T12:58:38;96757.84;;;4.76;100.00
596;BME280;19946;49.306;11.350;2023-04-08T13:01:40;96654.34;;;4.01;100.00
596;BME280;19946;49.306;11.350;2023-04-08T13:04:44;96812.00;;;5.01;100.00
596;BME280;19946;49.306;11.350;2023-04-08T13:07:46;96659.34;;;3.89;100.00
596;BME280;19946;49.306;11.350;2023-04-08T13:10:47;96719.41;;;4.15;100.00
596;BME280;19946;49.306;11.350;2023-04-08T13:13:48;96819.53;;;4.74;100.00
596;BME280;19946;49.306;11.350;2023-04-08T13:16:49;96695.22;;;3.89;100.00
596;BME280;19946;49.306;11.350;2023-04-08T13:19:52;96661.16;;;3.55;100.00
596;BME280;19946;49.306;11.350;2023-04-08T13:22:53;96734.69;;;4.16;100.00
596;BME280;19946;49.306;11.350;2023-04-08T13:25:53;96743.09;;;4.34;100.00
596;BME280;19946;49.306;11.350;2023-04-08T13:28:53;96734.19;;;4.25;100.00
596;BME280;19946;49.306;11.350;2023-04-08T13:31:55;96712.22;;;4.06;100.00
596;BME280;19946;49.306;11.350;2023-04-08T13:34:56;96818.50;;;4.77;100.00
596;BME280;19946;49.306;11.350;2023-04-08T13:37:57;96774.50;;;4.69;100.00
596;BME280;19946;49.306;11.350;2023-04-08T13:40:58;96798.13;;;4.90;100.00
596;BME280;19946;49.306;11.350;2023-04-08T13:43:58;96705.28;;;4.53;100.00
596;BME280;19946;49.306;11.350;2023-04-08T13:46:59;96727.50;;;4.68;100.00
596;BME280;19946;49.306;11.350;2023-04-08T13:50:00;96807.31;;;4.94;100.00
596;BME280;19946;49.306;11.350;2023-04-08T13:53:01;96806.56;;;4.76;100.00
596;BME280;19946;49.306;11.350;2023-04-08T13:59:52;96707.78;;;4.69;100.00
596;BME280;19946;49.306;11.350;2023-04-08T14:02:52;96822.38;;;5.58;100.00
596;BME280;19946;49.306;11.350;2023-04-08T14:05:53;96811.28;;;5.58;100.00
596;BME280;19946;49.306;11.350;2023-04-08T14:08:55;96695.56;;;4.88;100.00
596;BME280;19946;49.306;11.350;2023-04-08T14:11:55;96727.88;;;5.06;100.00
596;BME280;19946;49.306;11.350;2023-04-08T14:14:56;96812.72;;;5.33;100.00
596;BME280;19946;49.306;11.350;2023-04-08T14:17:57;96808.56;;;5.31;100.00
596;BME280;19946;49.306;11.350;2023-04-08T14:20:57;96691.25;;;4.89;100.00
596;BME280;19946;49.306;11.350;2023-04-08T14:23:58;96743.66;;;5.14;100.00
596;BME280;19946;49.306;11.350;2023-04-08T14:26:59;96730.56;;;4.75;100.00
596;BME280;19946;49.306;11.350;2023-04-08T14:30:00;96818.00;;;5.60;100.00
596;BME280;19946;49.306;11.350;2023-04-08T14:33:01;96815.78;;;5.68;100.00
596;BME280;19946;49.306;11.350;2023-04-08T14:36:02;96791.38;;;5.61;100.00
596;BME280;19946;49.306;11.350;2023-04-08T14:39:02;96752.19;;;5.43;100.00
596;BME280;19946;49.306;11.350;2023-04-08T14:45:19;96690.81;;;5.10;100.00
596;BME280;19946;49.306;11.350;2023-04-08T14:48:21;96717.81;;;5.60;100.00
596;BME280;19946;49.306;11.350;2023-04-08T14:51:23;96768.34;;;6.02;100.00
596;BME280;19946;49.306;11.350;2023-04-08T14:54:25;96725.94;;;5.53;100.00
596;BME280;19946;49.306;11.350;2023-04-08T14:57:26;96746.56;;;6.22;100.00
596;BME280;19946;49.306;11.350;2023-04-08T15:00:26;96817.03;;;6.46;100.00
596;BME280;19946;49.306;11.350;2023-04-08T15:03:30;96781.56;;;5.68;100.00
596;BME280;19946;49.306;11.350;2023-04-08T15:06:31;96704.69;;;4.78;100.00
596;BME280;19946;49.306;11.350;2023-04-08T15:09:32;96744.59;;;4.84;100.00
596;BME280;19946;49.306;11.350;2023-04-08T15:12:32;96839.50;;;5.43;100.00
596;BME280;19946;49.306;11.350;2023-04-08T15:15:33;96840.28;;;5.16;100.00
596;BME280;19946;49.306;11.350;2023-04-08T15:18:34;96754.63;;;4.27;100.00
596;BME280;19946;49.306;11.350;2023-04-08T15:25:02;96747.75;;;4.27;100.00
596;BME280;19946;49.306;11.350;2023-04-08T15:44:35;96796.75;;;4.68;100.00
596;BME280;19946;49.306;11.350;2023-04-08T15:47:35;96770.94;;;4.56;100.00
596;BME280;19946;49.306;11.350;2023-04-08T15:50:37;96781.13;;;4.73;100.00
596;BME280;19946;49.306;11.350;2023-04-08T15:53:38;96753.59;;;4.45;100.00
596;BME280;19946;49.306;11.350;2023-04-08T15:56:38;96852.44;;;5.28;100.00
596;BME280;19946;49.306;11.350;2023-04-08T16:26:12;96872.84;;;5.73;100.00
596;BME280;19946;49.306;11.350;2023-04-08T16:29:12;96799.75;;;5.06;100.00
596;BME280;19946;49.306;11.350;2023-04-08T16:38:49;96772.28;;;4.93;100.00
596;BME280;19946;49.306;11.350;2023-04-08T16:41:51;96799.91;;;5.03;100.00
596;BME280;19946;49.306;11.350;2023-04-08T16:44:59;96894.66;;;5.52;100.00
596;BME280;19946;49.306;11.350;2023-04-08T16:48:02;96848.06;;;5.14;100.00
596;BME280;19946;49.306;11.350;2023-04-08T16:51:04;96823.69;;;4.91;100.00
596;BME280;19946;49.306;11.350;2023-04-08T16:57:22;96863.03;;;5.22;100.00
596;BME280;19946;49.306;11.350;2023-04-08T17:00:24;96800.72;;;5.04;100.00
596;BME280;19946;49.306;11.350;2023-04-08T17:06:56;96847.97;;;5.16;100.00
596;BME280;19946;49.306;11.350;2023-04-08T17:09:59;96913.06;;;5.60;100.00
596;BME280;19946;49.306;11.350;2023-04-08T17:13:00;96796.22;;;4.77;100.00
596;BME280;19946;49.306;11.350;2023-04-08T17:16:00;96836.75;;;5.02;100.00
596;BME280;19946;49.306;11.350;2023-04-08T17:19:01;96877.69;;;5.20;100.00
596;BME280;19946;49.306;11.350;2023-04-08T17:22:01;96824.66;;;4.74;100.00
596;BME280;19946;49.306;11.350;2023-04-08T17:25:02;96929.69;;;5.39;100.00
596;BME280;19946;49.306;11.350;2023-04-08T17:28:04;96945.63;;;5.30;100.00
596;BME280;19946;49.306;11.350;2023-04-08T17:31:05;96903.09;;;4.94;100.00
596;BME280;19946;49.306;11.350;2023-04-08T17:34:06;96904.16;;;5.06;100.00
596;BME280;19946;49.306;11.350;2023-04-08T17:37:07;96886.59;;;4.98;100.00
596;BME280;19946;49.306;11.350;2023-04-08T17:40:09;96875.13;;;4.74;100.00
596;BME280;19946;49.306;11.350;2023-04-08T17:43:09;96833.41;;;4.55;100.00
596;BME280;19946;49.306;11.350;2023-04-08T17:46:12;96943.63;;;5.19;100.00
596;BME280;19946;49.306;11.350;2023-04-08T17:49:12;96852.72;;;4.62;100.00
596;BME280;19946;49.306;11.350;2023-04-08T17:52:13;96945.78;;;5.27;100.00
596;BME280;19946;49.306;11.350;2023-04-08T17:55:14;96875.28;;;4.71;100.00
596;BME280;19946;49.306;11.350;2023-04-08T17:58:14;96884.41;;;4.61;100.00
596;BME280;19946;49.306;11.350;2023-04-08T18:01:15;96828.47;;;4.20;100.00
596;BME280;19946;49.306;11.350;2023-04-08T18:04:29;96949.84;;;4.99;100.00
596;BME280;19946;49.306;11.350;2023-04-08T18:07:32;96951.00;;;4.94;100.00
596;BME280;19946;49.306;11.350;2023-04-08T18:10:33;96948.94;;;5.00;100.00
596;BME280;19946;49.306;11.350;2023-04-08T18:13:33;96968.41;;;5.04;100.00
596;BME280;19946;49.306;11.350;2023-04-08T18:16:33;96962.75;;;4.98;100.00
596;BME280;19946;49.306;11.350;2023-04-08T18:19:34;96973.13;;;4.96;100.00
596;BME280;19946;49.306;11.350;2023-04-08T18:22:34;96972.88;;;4.85;100.00
596;BME280;19946;49.306;11.350;2023-04-08T18:25:36;96950.19;;;4.62;100.00
596;BME280;19946;49.306;11.350;2023-04-08T18:28:36;96973.03;;;4.82;100.00
596;BME280;19946;49.306;11.350;2023-04-08T18:31:36;96985.44;;;4.90;100.00
596;BME280;19946;49.306;11.350;2023-04-08T18:34:37;96994.28;;;4.68;100.00
596;BME280;19946;49.306;11.350;2023-04-08T18:37:38;96997.75;;;4.67;100.00
596;BME280;19946;49.306;11.350;2023-04-08T18:40:38;96997.66;;;4.53;100.00
596;BME280;19946;49.306;11.350;2023-04-08T18:43:40;96982.31;;;4.36;100.00
596;BME280;19946;49.306;11.350;2023-04-08T18:46:40;97007.03;;;4.70;100.00
596;BME280;19946;49.306;11.350;2023-04-08T18:49:41;96992.13;;;4.61;100.00
596;BME280;19946;49.306;11.350;2023-04-08T18:52:41;96991.16;;;4.63;100.00
596;BME280;19946;49.306;11.350;2023-04-08T18:55:42;97017.47;;;4.83;100.00
596;BME280;19946;49.306;11.350;2023-04-08T18:58:43;96985.81;;;4.51;100.00
596;BME280;19946;49.306;11.350;2023-04-08T19:01:44;96993.16;;;4.41;100.00
596;BME280;19946;49.306;11.350;2023-04-08T19:04:45;97013.22;;;4.33;100.00
596;BME280;19946;49.306;11.350;2023-04-08T19:07:45;97036.03;;;4.22;100.00
596;BME280;19946;49.306;11.350;2023-04-08T19:10:47;97030.06;;;4.21;100.00
596;BME280;19946;49.306;11.350;2023-04-08T19:13:47;97011.28;;;4.03;100.00
596;BME280;19946;49.306;11.350;2023-04-08T19:16:47;97045.13;;;4.27;100.00
596;BME280;19946;49.306;11.350;2023-04-08T19:19:49;97006.78;;;3.91;100.00
596;BME280;19946;49.306;11.350;2023-04-08T19:22:56;97032.47;;;3.90;100.00
596;BME280;19946;49.306;11.350;2023-04-08T19:25:57;97045.16;;;4.10;100.00
596;BME280;19946;49.306;11.350;2023-04-08T19:28:57;97029.69;;;3.94;100.00
596;BME280;19946;49.306;11.350;2023-04-08T19:31:57;97044.59;;;4.03;100.00
596;BME280;19946;49.306;11.350;2023-04-08T19:34:58;97052.31;;;4.03;100.00